createdAt,value
2023-01-17T00:03:23.303Z,1.30
2023-01-17T00:08:55.323Z,1.25
2023-01-17T00:14:35.179Z,1.50
2023-01-17T00:19:56.017Z,1.60
2023-01-17T00:25:17.279Z,1.63
2023-01-17T00:30:19.958Z,1.63
2023-01-17T00:35:23.898Z,1.70
2023-01-17T00:40:26.481Z,1.65
2023-01-17T00:45:48.405Z,1.27
2023-01-17T00:51:09.470Z,1.65
2023-01-17T00:56:30.664Z,1.97
2023-01-17T01:01:52.546Z,2.33
2023-01-17T01:07:13.690Z,1.98
2023-01-17T01:12:35.200Z,1.47
2023-01-17T01:17:56.408Z,1.77
2023-01-17T01:23:17.536Z,2.30
2023-01-17T01:28:38.558Z,1.80
2023-01-17T01:33:41.256Z,1.45
2023-01-17T01:38:43.878Z,2.17
2023-01-17T01:43:55.039Z,2.05
2023-01-17T01:49:17.349Z,1.83
2023-01-17T01:54:28.717Z,2.30
2023-01-17T01:59:36.135Z,2.30
2023-01-17T02:04:39.426Z,2.20
2023-01-17T02:09:42.321Z,2.15
2023-01-17T02:14:47.266Z,1.70
2023-01-17T02:20:23.344Z,2.47
2023-01-17T02:25:50.684Z,1.98
2023-01-17T02:31:03.362Z,1.60
2023-01-17T02:36:22.912Z,1.95
2023-01-17T02:41:41.832Z,2.10
2023-01-17T02:46:52.534Z,2.00
2023-01-17T02:52:12.027Z,1.90
2023-01-17T02:57:39.259Z,2.37
2023-01-17T03:02:57.040Z,1.90
2023-01-17T03:08:00.849Z,2.37
2023-01-17T03:13:04.755Z,1.88
2023-01-17T03:18:13.181Z,2.20
2023-01-17T03:23:16.464Z,2.03
2023-01-17T03:28:19.727Z,1.85
2023-01-17T03:33:22.461Z,2.17
2023-01-17T03:38:43.139Z,2.20
2023-01-17T03:43:46.429Z,2.20
2023-01-17T03:48:52.286Z,1.57
2023-01-17T03:53:54.871Z,1.77
2023-01-17T03:58:58.867Z,1.30
2023-01-17T04:04:01.479Z,1.85
2023-01-17T04:09:04.771Z,1.95
2023-01-17T04:14:07.287Z,1.50
2023-01-17T04:19:13.922Z,1.70
2023-01-17T04:24:17.856Z,1.90
2023-01-17T04:29:20.749Z,1.75
2023-01-17T04:34:23.660Z,2.40
2023-01-17T04:39:29.570Z,1.23
2023-01-17T04:44:35.290Z,2.60
2023-01-17T04:49:38.400Z,2.60
2023-01-17T04:54:42.352Z,2.63
2023-01-17T04:59:45.599Z,2.55
2023-01-17T05:04:48.122Z,1.43
2023-01-17T05:09:51.994Z,1.73
2023-01-17T05:14:54.569Z,1.87
2023-01-17T05:19:59.354Z,1.95
2023-01-17T05:25:02.749Z,1.85
2023-01-17T05:30:08.109Z,2.10
2023-01-17T05:35:10.679Z,1.45
2023-01-17T05:40:17.125Z,1.80
2023-01-17T05:45:22.127Z,1.15
2023-01-17T05:50:27.180Z,2.00
2023-01-17T05:55:30.894Z,2.70
2023-01-17T06:00:37.553Z,0.77
2023-01-17T06:05:40.543Z,2.03
2023-01-17T06:10:46.053Z,1.90
2023-01-17T06:15:48.972Z,1.33
2023-01-17T06:20:54.779Z,1.37
2023-01-17T06:25:57.576Z,1.95
2023-01-17T06:31:00.236Z,1.20
2023-01-17T06:36:02.767Z,1.63
2023-01-17T06:41:05.973Z,1.10
2023-01-17T06:46:09.164Z,1.70
2023-01-17T06:51:12.408Z,2.03
2023-01-17T06:56:15.708Z,2.17
2023-01-17T07:01:19.240Z,1.52
2023-01-17T07:06:22.071Z,1.38
2023-01-17T07:11:24.705Z,1.70
2023-01-17T07:16:27.247Z,1.80
2023-01-17T07:21:32.110Z,2.23
2023-01-17T07:26:34.913Z,2.90
2023-01-17T07:31:38.930Z,2.83
2023-01-17T07:36:41.460Z,2.87
2023-01-17T07:41:45.169Z,3.40
2023-01-17T07:46:47.848Z,3.17
2023-01-17T07:51:53.344Z,3.15
2023-01-17T07:56:55.883Z,3.22
2023-01-17T08:01:59.212Z,3.10
2023-01-17T08:07:02.603Z,3.72
2023-01-17T08:12:05.317Z,3.60
2023-01-17T08:17:12.927Z,3.53
2023-01-17T08:22:15.409Z,3.05
2023-01-17T08:27:17.856Z,3.43
2023-01-17T08:32:21.655Z,3.58
2023-01-17T08:37:25.160Z,3.80
2023-01-17T08:42:30.299Z,2.95
2023-01-17T08:47:33.933Z,3.13
2023-01-17T08:52:36.476Z,3.40
2023-01-17T08:57:38.932Z,3.28
2023-01-17T09:08:09.870Z,2.97
2023-01-17T09:13:12.524Z,2.75
2023-01-17T09:18:15.067Z,2.90
2023-01-17T09:28:42.995Z,3.07
2023-01-17T09:33:45.622Z,2.47
2023-01-17T09:38:48.502Z,2.97
2023-01-17T09:44:29.429Z,2.47
2023-01-17T09:49:38.288Z,2.30
2023-01-17T09:54:46.843Z,2.93
2023-01-17T10:00:15.188Z,2.08
2023-01-17T10:05:36.748Z,2.70
2023-01-17T10:11:09.896Z,2.37
2023-01-17T10:16:18.426Z,2.30
2023-01-17T10:21:39.544Z,2.43
2023-01-17T10:26:44.241Z,2.20
2023-01-17T10:31:54.548Z,2.03
2023-01-17T10:37:04.467Z,2.07
2023-01-17T10:42:35.082Z,2.13
2023-01-17T10:47:39.718Z,2.10
2023-01-17T10:53:00.341Z,2.20
2023-01-17T10:58:04.044Z,1.80
2023-01-17T11:03:07.855Z,1.90
2023-01-17T11:08:16.501Z,1.75
2023-01-17T11:13:37.204Z,1.77
2023-01-17T11:18:51.354Z,1.63
2023-01-17T11:23:57.700Z,1.80
2023-01-17T11:29:37.142Z,1.80
2023-01-17T11:34:39.706Z,1.38
2023-01-17T11:39:43.673Z,2.27
2023-01-17T11:44:50.700Z,1.63
2023-01-17T11:49:53.238Z,1.35
2023-01-17T11:54:59.014Z,1.83
2023-01-17T12:00:25.268Z,2.00
2023-01-17T12:05:47.072Z,2.27
2023-01-17T12:11:14.910Z,2.55
2023-01-17T12:16:32.311Z,1.92
2023-01-17T12:22:00.451Z,2.17
2023-01-17T12:27:05.890Z,2.00
2023-01-17T12:32:36.015Z,2.40
2023-01-17T12:37:42.689Z,2.10
2023-01-17T12:43:14.923Z,2.55
2023-01-17T12:48:21.989Z,2.13
2023-01-17T12:53:59.663Z,2.38
2023-01-17T12:59:50.823Z,2.10
2023-01-17T13:05:05.588Z,1.88
2023-01-17T13:10:08.129Z,1.25
2023-01-17T13:15:25.448Z,2.23
2023-01-17T13:20:29.146Z,1.90
2023-01-17T13:25:45.371Z,1.53
2023-01-17T13:30:59.740Z,1.98
2023-01-17T13:36:20.558Z,1.73
2023-01-17T13:41:35.940Z,1.57
2023-01-17T13:46:59.075Z,2.75
2023-01-17T13:52:19.943Z,1.27
2023-01-17T13:57:40.284Z,2.65
2023-01-17T14:02:43.951Z,2.00
2023-01-17T14:07:53.984Z,1.70
2023-01-17T14:12:57.291Z,1.55
2023-01-17T14:18:00.668Z,2.03
2023-01-17T14:23:20.931Z,1.92
2023-01-17T14:28:29.531Z,2.75
2023-01-17T14:33:39.757Z,2.70
2023-01-17T14:38:43.916Z,2.13
2023-01-17T14:43:48.722Z,2.27
2023-01-17T14:49:20.842Z,1.50
2023-01-17T14:54:23.800Z,1.58
2023-01-17T14:59:26.401Z,1.80
2023-01-17T15:04:39.928Z,2.42
2023-01-17T15:09:44.789Z,1.93
2023-01-17T15:14:47.395Z,2.17
2023-01-17T15:19:56.777Z,1.50
2023-01-17T15:25:00.408Z,0.90
2023-01-17T15:30:04.456Z,1.50
2023-01-17T15:35:08.407Z,1.63
2023-01-17T15:40:19.038Z,1.45
2023-01-17T15:45:27.438Z,0.93
2023-01-17T15:50:32.223Z,1.33
2023-01-17T15:55:37.833Z,0.60
2023-01-17T16:00:42.207Z,0.80
2023-01-17T16:05:45.055Z,1.17
2023-01-17T16:10:47.566Z,1.15
2023-01-17T16:15:50.250Z,0.70
2023-01-17T16:21:05.751Z,1.40
2023-01-17T16:26:11.079Z,1.07
2023-01-17T16:31:13.836Z,1.52
2023-01-17T16:36:17.417Z,1.20
2023-01-17T16:41:21.092Z,1.37
2023-01-17T16:46:23.873Z,1.60
2023-01-17T16:51:26.491Z,2.03
2023-01-17T16:56:29.075Z,1.23
2023-01-17T17:01:35.359Z,1.27
2023-01-17T17:06:38.171Z,1.57
2023-01-17T17:11:43.156Z,1.77
2023-01-17T17:16:45.800Z,0.90
2023-01-17T17:21:49.253Z,0.82
2023-01-17T17:26:51.765Z,1.23
2023-01-17T17:31:55.639Z,1.93
2023-01-17T17:36:58.182Z,1.35
2023-01-17T17:42:00.628Z,1.30
2023-01-17T17:47:04.307Z,1.10
2023-01-17T17:52:07.680Z,0.82
2023-01-17T17:57:10.181Z,1.27
2023-01-17T18:02:12.669Z,0.77
2023-01-17T18:07:15.152Z,1.40
2023-01-17T18:12:17.631Z,0.82
2023-01-17T18:17:20.601Z,1.27
2023-01-17T18:22:23.299Z,1.00
2023-01-17T18:27:25.851Z,1.77
2023-01-17T18:32:28.307Z,0.83
2023-01-17T18:37:30.835Z,1.33
2023-01-17T18:42:33.305Z,1.30
2023-01-17T18:47:37.989Z,1.37
2023-01-17T18:52:41.139Z,0.73
2023-01-17T18:57:43.613Z,1.33
2023-01-17T19:02:49.011Z,1.10
2023-01-17T19:07:54.401Z,1.45
2023-01-17T19:12:56.967Z,1.60
2023-01-17T19:17:59.492Z,0.98
2023-01-17T19:23:02.005Z,1.10
2023-01-17T19:28:04.662Z,1.25
2023-01-17T19:33:07.186Z,1.20
2023-01-17T19:38:09.691Z,1.00
2023-01-17T19:43:12.207Z,0.73
2023-01-17T19:48:14.686Z,0.93
2023-01-17T19:53:17.448Z,1.13
2023-01-17T19:58:19.878Z,1.98
2023-01-17T20:03:22.434Z,1.63
2023-01-17T20:08:24.928Z,1.60
2023-01-17T20:13:27.382Z,1.40
2023-01-17T20:18:30.341Z,1.40
2023-01-17T20:23:36.719Z,1.48
2023-01-17T20:28:40.952Z,1.70
2023-01-17T20:33:45.014Z,2.30
2023-01-17T20:38:49.128Z,2.10
2023-01-17T20:43:54.413Z,3.83
2023-01-17T20:48:58.236Z,2.67
2023-01-17T20:54:05.070Z,4.37
2023-01-17T20:59:09.789Z,2.53
2023-01-17T21:04:13.253Z,3.10
2023-01-17T21:09:17.413Z,4.28
2023-01-17T21:14:21.890Z,4.45
2023-01-17T21:19:24.493Z,5.20
2023-01-17T21:24:29.492Z,5.20
2023-01-17T21:29:34.524Z,6.73
2023-01-17T21:34:37.008Z,3.92
2023-01-17T21:39:39.698Z,5.03
2023-01-17T21:44:42.323Z,8.57
2023-01-17T21:49:46.045Z,4.07
2023-01-17T21:55:07.284Z,9.60
2023-01-17T22:00:14.772Z,8.25
2023-01-17T22:05:20.973Z,9.55
2023-01-17T22:10:24.512Z,8.43
2023-01-17T22:15:27.321Z,10.00
2023-01-17T22:20:29.975Z,4.57
2023-01-17T22:25:32.669Z,7.45
2023-01-17T22:30:35.257Z,9.48
2023-01-17T22:35:37.694Z,7.93
2023-01-17T22:40:40.172Z,9.18
2023-01-17T22:45:42.739Z,10.83
2023-01-17T22:50:45.936Z,7.50
2023-01-17T22:55:48.652Z,9.15
2023-01-17T23:00:51.371Z,8.67
2023-01-17T23:05:54.319Z,5.13
2023-01-17T23:11:35.554Z,5.77
2023-01-17T23:16:58.221Z,6.57
2023-01-17T23:22:19.482Z,7.90
2023-01-17T23:27:47.120Z,9.10
2023-01-17T23:32:51.228Z,8.27
2023-01-17T23:38:12.669Z,7.33
2023-01-17T23:43:30.126Z,2.90
2023-01-17T23:48:32.717Z,4.35
2023-01-17T23:53:37.051Z,5.97
2023-01-17T23:58:40.754Z,4.07
